createdAt,value
2018-07-28T00:01:48.623Z,60192.62
2018-07-28T00:04:16.808Z,60175.35
2018-07-28T00:06:44.967Z,60178.40
2018-07-28T00:09:13.162Z,60193.64
2018-07-28T00:11:41.342Z,60187.54
2018-07-28T00:14:09.558Z,60181.45
2018-07-28T00:16:37.722Z,60187.54
2018-07-28T00:19:06.313Z,60192.62
2018-07-28T00:21:34.495Z,60165.19
2018-07-28T00:24:02.675Z,60178.40
2018-07-28T00:26:30.858Z,60190.59
2018-07-28T00:28:59.027Z,60201.77
2018-07-28T00:31:27.248Z,60180.43
2018-07-28T00:33:55.734Z,60181.45
2018-07-28T00:36:23.913Z,60191.61
2018-07-28T00:38:52.102Z,60188.56
2018-07-28T00:41:20.354Z,60182.46
2018-07-28T00:43:48.530Z,60205.83
2018-07-28T00:46:16.714Z,60180.43
2018-07-28T00:48:44.890Z,60193.64
2018-07-28T00:51:13.054Z,60186.52
2018-07-28T00:53:41.227Z,60201.77
2018-07-28T00:56:09.398Z,60175.35
2018-07-28T00:58:37.575Z,60173.32
2018-07-28T01:01:05.754Z,60200.75
2018-07-28T01:03:33.953Z,60177.38
2018-07-28T01:06:02.123Z,60183.48
2018-07-28T01:08:30.313Z,60177.38
2018-07-28T01:10:58.487Z,60189.57
2018-07-28T01:13:26.655Z,60194.66
2018-07-28T01:15:54.863Z,60207.86
2018-07-28T01:18:23.019Z,60197.70
2018-07-28T01:20:51.191Z,60200.75
2018-07-28T01:23:19.366Z,60184.49
2018-07-28T01:25:47.542Z,60201.77
2018-07-28T01:28:15.723Z,60190.59
2018-07-28T01:30:43.900Z,60178.40
2018-07-28T01:33:12.090Z,60192.62
2018-07-28T01:35:40.302Z,60205.83
2018-07-28T01:38:08.501Z,60197.70
2018-07-28T01:40:36.702Z,60205.83
2018-07-28T01:43:04.889Z,60202.79
2018-07-28T01:45:33.058Z,60190.59
2018-07-28T01:48:01.231Z,60208.88
2018-07-28T01:50:29.391Z,60180.43
2018-07-28T01:52:57.579Z,60218.03
2018-07-28T01:55:25.742Z,60201.77
2018-07-28T01:57:53.914Z,60205.83
2018-07-28T02:00:22.098Z,60198.72
2018-07-28T02:02:50.266Z,60192.62
2018-07-28T02:05:18.442Z,60213.96
2018-07-28T02:07:46.615Z,60195.67
2018-07-28T02:10:14.806Z,60200.75
2018-07-28T02:12:42.992Z,60209.90
2018-07-28T02:15:11.198Z,60200.75
2018-07-28T02:17:39.377Z,60196.69
2018-07-28T02:20:08.282Z,60203.80
2018-07-28T02:22:36.473Z,60214.98
2018-07-28T02:25:06.519Z,60217.01
2018-07-28T02:27:34.699Z,60226.16
2018-07-28T02:30:03.110Z,60217.01
2018-07-28T02:32:31.299Z,60201.77
2018-07-28T02:34:59.462Z,60210.91
2018-07-28T02:37:27.635Z,60226.16
2018-07-28T02:39:55.808Z,60219.04
2018-07-28T02:42:24.006Z,60207.86
2018-07-28T02:44:52.194Z,60212.95
2018-07-28T02:47:27.120Z,60229.20
2018-07-28T02:49:55.281Z,60212.95
2018-07-28T02:52:23.452Z,60230.22
2018-07-28T02:54:52.371Z,60218.03
2018-07-28T02:57:20.535Z,60214.98
2018-07-28T02:59:48.708Z,60225.14
2018-07-28T03:02:16.878Z,60223.11
2018-07-28T03:04:45.108Z,60225.14
2018-07-28T03:07:13.267Z,60232.25
2018-07-28T03:09:41.465Z,60228.19
2018-07-28T03:12:09.627Z,60225.14
2018-07-28T03:14:37.786Z,60225.14
2018-07-28T03:17:06.067Z,60232.25
2018-07-28T03:19:34.399Z,60218.03
2018-07-28T03:22:02.582Z,60231.24
2018-07-28T03:24:30.763Z,60193.64
2018-07-28T03:26:58.950Z,60215.99
2018-07-28T03:29:27.145Z,60218.03
2018-07-28T03:31:55.323Z,60210.91
2018-07-28T03:34:23.502Z,60209.90
2018-07-28T03:36:51.685Z,60221.07
2018-07-28T03:39:19.870Z,60225.14
2018-07-28T03:41:48.040Z,60186.52
2018-07-28T03:44:16.191Z,60212.95
2018-07-28T03:46:44.375Z,60219.04
2018-07-28T03:49:12.550Z,60220.06
2018-07-28T03:51:40.757Z,60206.85
2018-07-28T03:54:09.146Z,60217.01
2018-07-28T03:56:37.555Z,60247.49
2018-07-28T03:59:05.996Z,60218.03
2018-07-28T04:01:34.170Z,60226.16
2018-07-28T04:04:02.424Z,60220.06
2018-07-28T04:06:30.546Z,60206.85
2018-07-28T04:08:58.731Z,60211.93
2018-07-28T04:11:26.894Z,60223.11
2018-07-28T04:13:55.067Z,60220.06
2018-07-28T04:16:23.230Z,60229.20
2018-07-28T04:18:51.402Z,60224.12
2018-07-28T04:21:19.582Z,60222.09
2018-07-28T04:23:47.746Z,60209.90
2018-07-28T04:26:15.958Z,60242.41
2018-07-28T04:28:44.131Z,60238.35
2018-07-28T04:31:12.295Z,60237.33
2018-07-28T04:33:40.466Z,60237.33
2018-07-28T04:36:08.659Z,60220.06
2018-07-28T04:38:36.867Z,60242.41
2018-07-28T04:41:05.042Z,60220.06
2018-07-28T04:43:33.212Z,60248.51
2018-07-28T04:48:52.115Z,60227.17
2018-07-28T04:51:20.314Z,60225.14
2018-07-28T04:53:48.478Z,60237.33
2018-07-28T04:56:16.655Z,60219.04
2018-07-28T04:58:44.835Z,60224.12
2018-07-28T05:01:13.023Z,60220.06
2018-07-28T05:03:41.178Z,60237.33
2018-07-28T05:06:09.350Z,60223.11
2018-07-28T05:08:37.521Z,60236.32
2018-07-28T05:11:05.711Z,60233.27
2018-07-28T05:13:33.894Z,60242.41
2018-07-28T05:16:02.155Z,60229.20
2018-07-28T05:18:30.262Z,60220.06
2018-07-28T05:20:58.551Z,60208.88
2018-07-28T05:23:26.750Z,60231.24
2018-07-28T05:25:54.918Z,60223.11
2018-07-28T05:28:23.106Z,60210.91
2018-07-28T05:30:51.266Z,60199.74
2018-07-28T05:33:19.485Z,60197.70
2018-07-28T05:35:47.666Z,60210.91
2018-07-28T05:38:15.846Z,60206.85
2018-07-28T05:40:44.042Z,60231.24
2018-07-28T05:43:12.210Z,60221.07
2018-07-28T05:45:40.403Z,60219.04
2018-07-28T05:48:08.680Z,60215.99
2018-07-28T05:50:36.842Z,60215.99
2018-07-28T05:53:05.270Z,60202.79
2018-07-28T05:55:33.434Z,60206.85
2018-07-28T05:58:01.622Z,60209.90
2018-07-28T06:00:29.818Z,60212.95
2018-07-28T06:02:58.411Z,60225.14
2018-07-28T06:05:26.603Z,60228.19
2018-07-28T06:07:54.775Z,60226.16
2018-07-28T06:10:22.939Z,60228.19
2018-07-28T06:12:51.567Z,60242.41
2018-07-28T06:15:19.808Z,60238.35
2018-07-28T06:17:48.038Z,60231.24
2018-07-28T06:20:16.252Z,60227.17
2018-07-28T06:22:44.399Z,60230.22
2018-07-28T06:25:12.585Z,60242.41
2018-07-28T06:27:40.762Z,60241.40
2018-07-28T06:30:09.843Z,60228.19
2018-07-28T06:32:38.413Z,60227.17
2018-07-28T06:35:06.590Z,60233.27
2018-07-28T06:37:34.775Z,60233.27
2018-07-28T06:40:02.992Z,60231.24
2018-07-28T06:42:31.167Z,60239.36
2018-07-28T06:44:59.355Z,60213.96
2018-07-28T06:47:27.566Z,60251.56
2018-07-28T06:49:55.765Z,60245.46
2018-07-28T06:52:24.127Z,60236.32
2018-07-28T06:54:52.367Z,60249.53
2018-07-28T06:57:20.566Z,60257.66
2018-07-28T06:59:48.828Z,60212.95
2018-07-28T07:02:17.086Z,60229.20
2018-07-28T07:04:45.393Z,60227.17
2018-07-28T07:07:13.710Z,60229.20
2018-07-28T07:09:41.974Z,60242.41
2018-07-28T07:12:10.399Z,60240.38
2018-07-28T07:14:38.622Z,60240.38
2018-07-28T07:17:06.936Z,60221.07
2018-07-28T07:19:35.219Z,60230.22
2018-07-28T07:22:03.540Z,60235.30
2018-07-28T07:24:31.743Z,60230.22
2018-07-28T07:26:59.971Z,60202.79
2018-07-28T07:29:28.191Z,60224.12
2018-07-28T07:31:56.395Z,60214.98
2018-07-28T07:34:24.606Z,60229.20
2018-07-28T07:36:52.853Z,60220.06
2018-07-28T07:39:21.091Z,60219.04
2018-07-28T07:41:49.352Z,60197.70
2018-07-28T07:44:17.470Z,60217.01
2018-07-28T07:46:45.649Z,60223.11
2018-07-28T07:49:14.056Z,60214.98
2018-07-28T07:51:42.300Z,60225.14
2018-07-28T07:54:10.510Z,60204.82
2018-07-28T07:56:38.698Z,60195.67
2018-07-28T07:59:06.886Z,60234.29
2018-07-28T08:01:35.059Z,60220.06
2018-07-28T08:04:03.247Z,60205.83
2018-07-28T08:06:31.490Z,60221.07
2018-07-28T08:08:59.635Z,60214.98
2018-07-28T08:11:27.811Z,60187.54
2018-07-28T08:13:56.007Z,60214.98
2018-07-28T08:16:24.197Z,60214.98
2018-07-28T08:18:52.391Z,60225.14
2018-07-28T08:21:20.579Z,60219.04
2018-07-28T08:23:48.749Z,60212.95
2018-07-28T08:26:16.922Z,60223.11
2018-07-28T08:28:45.331Z,60211.93
2018-07-28T08:31:13.874Z,60219.04
2018-07-28T08:33:42.059Z,60197.70
2018-07-28T08:36:10.233Z,60207.86
2018-07-28T08:38:38.404Z,60212.95
2018-07-28T08:41:06.694Z,60230.22
2018-07-28T08:43:34.886Z,60223.11
2018-07-28T08:46:03.090Z,60199.74
2018-07-28T08:48:31.266Z,60225.14
2018-07-28T08:50:59.609Z,60200.75
2018-07-28T08:53:27.775Z,60202.79
2018-07-28T08:55:55.962Z,60200.75
2018-07-28T08:58:24.178Z,60192.62
2018-07-28T09:00:52.358Z,60202.79
2018-07-28T09:03:20.529Z,60189.57
2018-07-28T09:05:48.999Z,60194.66
2018-07-28T09:08:17.673Z,60182.46
2018-07-28T09:10:45.986Z,60193.64
2018-07-28T09:13:14.300Z,60185.51
2018-07-28T09:15:42.606Z,60181.45
2018-07-28T09:18:11.043Z,60186.52
2018-07-28T09:20:39.361Z,60178.40
2018-07-28T09:23:08.993Z,60146.90
2018-07-28T09:25:37.234Z,60175.35
2018-07-28T09:28:05.600Z,60173.32
2018-07-28T09:30:34.055Z,60170.27
2018-07-28T09:33:02.310Z,60162.14
2018-07-28T09:35:30.692Z,60171.29
2018-07-28T09:37:58.951Z,60154.01
2018-07-28T09:40:27.229Z,60172.30
2018-07-28T09:42:55.510Z,60167.22
2018-07-28T09:45:23.786Z,60143.85
2018-07-28T09:47:52.080Z,60141.82
2018-07-28T09:50:20.395Z,60153.00
2018-07-28T09:52:48.594Z,60136.73
2018-07-28T09:55:16.798Z,60137.75
2018-07-28T09:57:45.073Z,60153.00
2018-07-28T10:00:17.399Z,60154.01
2018-07-28T10:02:45.900Z,60140.80
2018-07-28T10:05:14.266Z,60142.83
2018-07-28T10:07:42.487Z,60159.09
2018-07-28T10:10:10.723Z,60151.98
2018-07-28T10:12:38.898Z,60134.70
2018-07-28T10:15:07.083Z,60135.72
2018-07-28T10:17:35.276Z,60133.69
2018-07-28T10:20:03.654Z,60169.25
2018-07-28T10:22:31.834Z,60154.01
2018-07-28T10:25:00.086Z,60156.04
2018-07-28T10:27:28.299Z,60174.33
2018-07-28T10:29:56.486Z,60133.69
2018-07-28T10:32:24.790Z,60145.88
2018-07-28T10:34:52.962Z,60142.83
2018-07-28T10:37:21.170Z,60148.93
2018-07-28T10:39:49.421Z,60142.83
2018-07-28T10:42:17.627Z,60141.82
2018-07-28T10:44:45.800Z,60138.77
2018-07-28T10:47:14.035Z,60125.56
2018-07-28T10:49:42.222Z,60128.61
2018-07-28T10:52:10.417Z,60126.57
2018-07-28T10:54:38.595Z,60117.43
2018-07-28T10:57:06.821Z,60106.25
2018-07-28T10:59:35.001Z,60112.35
2018-07-28T11:02:03.242Z,60112.35
2018-07-28T11:04:31.415Z,60086.95
2018-07-28T11:06:59.610Z,60100.16
2018-07-28T11:09:28.895Z,60094.06
2018-07-28T11:11:57.088Z,60086.95
2018-07-28T11:14:25.306Z,60073.74
2018-07-28T11:16:53.526Z,60072.72
2018-07-28T11:19:21.728Z,60066.62
2018-07-28T11:21:49.882Z,60077.80
2018-07-28T11:24:18.086Z,60067.64
2018-07-28T11:26:46.271Z,60063.57
2018-07-28T11:29:14.428Z,60081.87
2018-07-28T11:31:53.808Z,60103.20
2018-07-28T11:34:33.195Z,60093.04
2018-07-28T11:38:15.898Z,60093.04
2018-07-28T11:40:55.422Z,60098.12
2018-07-28T11:43:34.786Z,60126.57
2018-07-28T11:46:02.963Z,60128.61
2018-07-28T11:48:31.122Z,60136.73
2018-07-28T11:50:59.379Z,60120.48
2018-07-28T11:53:27.546Z,60110.32
2018-07-28T11:55:55.731Z,60123.53
2018-07-28T11:58:23.981Z,60109.30
2018-07-28T12:00:52.099Z,60109.30
2018-07-28T12:03:20.270Z,60094.06
2018-07-28T12:05:48.446Z,60103.20
2018-07-28T12:08:16.621Z,60091.01
2018-07-28T12:10:44.794Z,60086.95
2018-07-28T12:13:13.479Z,60110.32
2018-07-28T12:15:41.712Z,60109.30
2018-07-28T12:18:10.105Z,60115.40
2018-07-28T12:20:38.757Z,60111.33
2018-07-28T12:23:07.149Z,60115.40
2018-07-28T12:25:35.570Z,60110.32
2018-07-28T12:28:03.894Z,60096.09
2018-07-28T12:30:32.157Z,60099.14
2018-07-28T12:33:00.365Z,60100.16
2018-07-28T12:35:28.771Z,60093.04
2018-07-28T12:37:57.138Z,60099.14
2018-07-28T12:40:25.458Z,60090.00
2018-07-28T12:42:53.895Z,60118.45
2018-07-28T12:45:22.352Z,60113.37
2018-07-28T12:47:50.763Z,60103.20
2018-07-28T12:50:19.556Z,60106.25
2018-07-28T12:52:47.840Z,60107.27
2018-07-28T12:55:16.023Z,60120.48
2018-07-28T12:57:44.295Z,60096.09
2018-07-28T13:00:12.495Z,60097.11
2018-07-28T13:02:40.670Z,60100.16
2018-07-28T13:05:09.335Z,60075.77
2018-07-28T13:07:37.656Z,60086.95
2018-07-28T13:10:06.754Z,60073.74
2018-07-28T13:12:35.103Z,60094.06
2018-07-28T13:15:03.542Z,60082.88
2018-07-28T13:17:31.734Z,60105.24
2018-07-28T13:19:59.895Z,60109.30
2018-07-28T13:22:28.395Z,60106.25
2018-07-28T13:24:56.595Z,60104.22
2018-07-28T13:27:24.853Z,60114.38
2018-07-28T13:29:53.158Z,60112.35
2018-07-28T13:32:23.207Z,60126.57
2018-07-28T13:34:51.786Z,60086.95
2018-07-28T13:37:19.959Z,60098.12
2018-07-28T13:39:48.223Z,60107.27
2018-07-28T13:42:16.413Z,60095.08
2018-07-28T13:44:44.912Z,60111.33
2018-07-28T13:47:13.074Z,60109.30
2018-07-28T13:49:41.347Z,60119.46
2018-07-28T13:52:09.577Z,60112.35
2018-07-28T13:54:37.744Z,60115.40
2018-07-28T13:57:06.182Z,60130.64
2018-07-28T13:59:34.350Z,60123.53
2018-07-28T14:02:03.910Z,60114.38
2018-07-28T14:04:32.202Z,60109.30
2018-07-28T14:07:00.765Z,60115.40
2018-07-28T14:09:29.448Z,60116.41
2018-07-28T14:11:57.976Z,60107.27
2018-07-28T14:14:26.246Z,60101.17
2018-07-28T14:16:54.690Z,60103.20
2018-07-28T14:19:23.102Z,60096.09
2018-07-28T14:21:51.499Z,60107.27
2018-07-28T14:24:20.253Z,60102.19
2018-07-28T14:26:48.973Z,60100.16
2018-07-28T14:29:17.394Z,60096.09
2018-07-28T14:31:45.688Z,60119.46
2018-07-28T14:34:14.083Z,60132.67
2018-07-28T14:36:42.484Z,60124.54
2018-07-28T14:39:10.743Z,60137.75
2018-07-28T14:41:39.677Z,60124.54
2018-07-28T14:44:08.202Z,60122.51
2018-07-28T14:46:36.558Z,60145.88
2018-07-28T14:49:05.010Z,60134.70
2018-07-28T14:51:33.275Z,60140.80
2018-07-28T14:54:01.591Z,60150.96
2018-07-28T14:56:30.053Z,60149.95
2018-07-28T14:58:58.422Z,60153.00
2018-07-28T15:01:26.831Z,60147.91
2018-07-28T15:03:55.087Z,60141.82
2018-07-28T15:06:23.502Z,60127.59
2018-07-28T15:08:51.770Z,60139.79
2018-07-28T15:11:20.097Z,60148.93
2018-07-28T15:13:48.396Z,60154.01
2018-07-28T15:16:16.614Z,60164.17
2018-07-28T15:18:45.013Z,60157.06
2018-07-28T15:21:13.351Z,60166.20
2018-07-28T15:23:41.593Z,60151.98
2018-07-28T15:26:09.846Z,60172.30
2018-07-28T15:28:38.137Z,60181.45
2018-07-28T15:31:06.438Z,60164.17
2018-07-28T15:33:34.923Z,60174.33
2018-07-28T15:36:03.243Z,60160.11
2018-07-28T15:38:31.497Z,60158.07
2018-07-28T15:40:59.755Z,60164.17
2018-07-28T15:43:28.063Z,60148.93
2018-07-28T15:45:56.251Z,60142.83
2018-07-28T15:48:24.418Z,60162.14
2018-07-28T15:50:52.672Z,60155.03
2018-07-28T15:53:20.846Z,60136.73
2018-07-28T15:55:49.020Z,60132.67
2018-07-28T15:58:17.191Z,60140.80
2018-07-28T16:00:45.354Z,60146.90
2018-07-28T16:03:13.530Z,60136.73
2018-07-28T16:05:41.686Z,60145.88
2018-07-28T16:08:10.071Z,60138.77
2018-07-28T16:10:38.263Z,60154.01
2018-07-28T16:13:06.851Z,60136.73
2018-07-28T16:15:36.048Z,60138.77
2018-07-28T16:18:04.362Z,60146.90
2018-07-28T16:20:32.744Z,60136.73
2018-07-28T16:23:01.171Z,60144.87
2018-07-28T16:25:30.130Z,60140.80
2018-07-28T16:27:59.181Z,60141.82
2018-07-28T16:30:27.527Z,60139.79
2018-07-28T16:32:55.724Z,60129.63
2018-07-28T16:35:23.943Z,60130.64
2018-07-28T16:37:52.187Z,60149.95
2018-07-28T16:40:20.433Z,60140.80
2018-07-28T16:42:48.590Z,60135.72
2018-07-28T16:45:16.796Z,60145.88
2018-07-28T16:47:45.094Z,60167.22
2018-07-28T16:50:13.269Z,60160.11
2018-07-28T16:52:41.451Z,60166.20
2018-07-28T16:55:09.656Z,60144.87
2018-07-28T16:57:39.190Z,60156.04
2018-07-28T17:00:07.474Z,60149.95
2018-07-28T17:02:35.759Z,60148.93
2018-07-28T17:05:04.411Z,60161.12
2018-07-28T17:07:32.718Z,60143.85
2018-07-28T17:10:00.910Z,60172.30
2018-07-28T17:12:29.130Z,60171.29
2018-07-28T17:14:57.291Z,60167.22
2018-07-28T17:17:25.656Z,60179.41
2018-07-28T17:19:53.851Z,60172.30
2018-07-28T17:22:22.061Z,60175.35
2018-07-28T17:24:50.471Z,60170.27
2018-07-28T17:27:18.715Z,60168.23
2018-07-28T17:29:46.906Z,60171.29
2018-07-28T17:32:15.125Z,60187.54
2018-07-28T17:34:43.306Z,60170.27
2018-07-28T17:37:11.562Z,60169.25
2018-07-28T17:39:39.782Z,60181.45
2018-07-28T17:42:07.947Z,60175.35
2018-07-28T17:44:36.415Z,60189.57
2018-07-28T17:47:04.669Z,60209.90
2018-07-28T17:49:32.914Z,60182.46
2018-07-28T17:52:01.088Z,60185.51
2018-07-28T17:54:29.274Z,60179.41
2018-07-28T17:56:57.971Z,60186.52
2018-07-28T17:59:26.496Z,60186.52
2018-07-28T18:01:55.057Z,60182.46
2018-07-28T18:04:23.417Z,60180.43
2018-07-28T18:06:51.716Z,60166.20
2018-07-28T18:09:20.182Z,60173.32
2018-07-28T18:11:48.554Z,60189.57
2018-07-28T18:14:16.940Z,60173.32
2018-07-28T18:16:45.374Z,60165.19
2018-07-28T18:19:13.763Z,60186.52
2018-07-28T18:21:42.226Z,60176.37
2018-07-28T18:24:10.546Z,60178.40
2018-07-28T18:26:39.152Z,60171.29
2018-07-28T18:29:07.563Z,60189.57
2018-07-28T18:31:36.307Z,60186.52
2018-07-28T18:34:04.910Z,60181.45
2018-07-28T18:36:33.693Z,60189.57
2018-07-28T18:39:02.025Z,60191.61
2018-07-28T18:41:31.717Z,60190.59
2018-07-28T18:44:00.231Z,60200.75
2018-07-28T18:46:28.915Z,60195.67
2018-07-28T18:48:57.400Z,60192.62
2018-07-28T18:51:26.029Z,60209.90
2018-07-28T18:53:54.511Z,60212.95
2018-07-28T18:56:22.848Z,60214.98
2018-07-28T18:58:51.298Z,60186.52
2018-07-28T19:01:19.941Z,60183.48
2018-07-28T19:03:48.719Z,60198.72
2018-07-28T19:06:17.809Z,60211.93
2018-07-28T19:08:50.350Z,60188.56
2018-07-28T19:11:18.595Z,60210.91
2018-07-28T19:13:52.100Z,60211.93
2018-07-28T19:16:20.387Z,60201.77
2018-07-28T19:18:53.852Z,60225.14
2018-07-28T19:21:22.741Z,60225.14
2018-07-28T19:23:56.282Z,60203.80
2018-07-28T19:26:24.707Z,60233.27
2018-07-28T19:28:58.475Z,60203.80
2018-07-28T19:31:26.947Z,60213.96
2018-07-28T19:33:55.666Z,60222.09
2018-07-28T19:36:29.371Z,60212.95
2018-07-28T19:38:58.013Z,60196.69
2018-07-28T19:41:26.713Z,60232.25
2018-07-28T19:43:55.179Z,60214.98
2018-07-28T19:46:23.615Z,60207.86
2018-07-28T19:48:51.962Z,60227.17
2018-07-28T19:51:20.183Z,60215.99
2018-07-28T19:53:48.518Z,60227.17
2018-07-28T19:56:16.714Z,60227.17
2018-07-28T19:58:44.906Z,60238.35
2018-07-28T20:01:13.107Z,60218.03
2018-07-28T20:03:41.366Z,60220.06
2018-07-28T20:06:09.682Z,60215.99
2018-07-28T20:08:37.951Z,60202.79
2018-07-28T20:11:06.134Z,60219.04
2018-07-28T20:13:34.322Z,60202.79
2018-07-28T20:16:02.527Z,60227.17
2018-07-28T20:18:30.778Z,60217.01
2018-07-28T20:20:59.033Z,60247.49
2018-07-28T20:23:27.574Z,60229.20
2018-07-28T20:25:55.722Z,60207.86
2018-07-28T20:28:23.903Z,60223.11
2018-07-28T20:30:52.060Z,60233.27
2018-07-28T20:33:20.473Z,60231.24
2018-07-28T20:35:48.682Z,60219.04
2018-07-28T20:38:16.850Z,60222.09
2018-07-28T20:40:45.027Z,60225.14
2018-07-28T20:43:13.366Z,60227.17
2018-07-28T20:45:41.539Z,60251.56
2018-07-28T20:48:09.743Z,60234.29
2018-07-28T20:50:37.892Z,60246.48
2018-07-28T20:53:06.089Z,60228.19
2018-07-28T20:55:34.455Z,60254.61
2018-07-28T20:58:02.626Z,60242.41
2018-07-28T21:00:30.798Z,60249.53
2018-07-28T21:02:58.990Z,60228.19
2018-07-28T21:05:27.157Z,60245.46
2018-07-28T21:07:55.338Z,60240.38
2018-07-28T21:10:23.499Z,60245.46
2018-07-28T21:12:51.667Z,60247.49
2018-07-28T21:15:19.843Z,60251.56
2018-07-28T21:17:48.014Z,60232.25
2018-07-28T21:20:16.167Z,60260.71
2018-07-28T21:22:44.362Z,60246.48
2018-07-28T21:25:12.531Z,60239.36
2018-07-28T21:27:40.694Z,60239.36
2018-07-28T21:30:09.090Z,60241.40
2018-07-28T21:32:37.270Z,60246.48
2018-07-28T21:35:05.466Z,60252.57
2018-07-28T21:37:33.631Z,60227.17
2018-07-28T21:40:01.819Z,60230.22
2018-07-28T21:42:30.007Z,60257.66
2018-07-28T21:44:58.219Z,60259.69
2018-07-28T21:47:26.384Z,60262.74
2018-07-28T21:49:54.574Z,60252.57
2018-07-28T21:52:22.865Z,60249.53
2018-07-28T21:54:51.351Z,60243.43
2018-07-28T21:57:19.534Z,60230.22
2018-07-28T21:59:47.713Z,60241.40
2018-07-28T22:02:15.882Z,60252.57
2018-07-28T22:04:44.250Z,60243.43
2018-07-28T22:07:12.422Z,60265.79
2018-07-28T22:09:40.598Z,60257.66
2018-07-28T22:12:08.790Z,60246.48
2018-07-28T22:14:36.962Z,60266.80
2018-07-28T22:17:05.471Z,60261.72
2018-07-28T22:19:33.643Z,60247.49
2018-07-28T22:22:01.810Z,60261.72
2018-07-28T22:24:29.974Z,60255.63
2018-07-28T22:26:58.139Z,60244.45
2018-07-28T22:29:26.291Z,60255.63
2018-07-28T22:31:54.483Z,60251.56
2018-07-28T22:34:22.638Z,60254.61
2018-07-28T22:36:50.835Z,60252.57
2018-07-28T22:39:18.994Z,60258.67
2018-07-28T22:41:47.179Z,60257.66
2018-07-28T22:44:15.341Z,60265.79
2018-07-28T22:46:43.504Z,60259.69
2018-07-28T22:49:11.671Z,60272.90
2018-07-28T22:51:39.847Z,60251.56
2018-07-28T22:54:08.033Z,60286.11
2018-07-28T22:56:36.259Z,60249.53
2018-07-28T22:59:04.438Z,60256.64
2018-07-28T23:01:32.619Z,60272.90
2018-07-28T23:04:00.782Z,60249.53
2018-07-28T23:06:28.959Z,60242.41
2018-07-28T23:08:57.170Z,60264.77
2018-07-28T23:11:25.351Z,60252.57
2018-07-28T23:13:53.518Z,60263.75
2018-07-28T23:16:21.674Z,60257.66
2018-07-28T23:18:49.865Z,60278.99
2018-07-28T23:21:18.032Z,60265.79
2018-07-28T23:23:46.190Z,60274.93
2018-07-28T23:26:14.354Z,60270.87
2018-07-28T23:28:42.522Z,60269.85
2018-07-28T23:31:10.702Z,60271.88
2018-07-28T23:33:38.907Z,60263.75
2018-07-28T23:36:07.078Z,60271.88
2018-07-28T23:38:35.254Z,60273.91
2018-07-28T23:41:03.439Z,60284.07
2018-07-28T23:43:31.603Z,60273.91
2018-07-28T23:45:59.782Z,60295.25
2018-07-28T23:48:27.941Z,60274.93
2018-07-28T23:50:56.139Z,60264.77
2018-07-28T23:53:24.310Z,60298.30
2018-07-28T23:55:52.477Z,60292.21
2018-07-28T23:58:20.651Z,60298.30
